Time;durP1;ratioP1;P1;durP2;ratioP2;P2;SDS_P1;SDS_P2;PMS_P1;PMS_P2;Temp;Humidity;BMP_temperature;BMP_pressure;BME280_temperature;BME280_humidity;BME280_pressure;Samples;Min_cycle;Max_cycle;Signal;HPM_P1;HPM_P2
2022/07/15 00:01:28;;;;;;;;;;;;;;;;;;5056019;28;20395;-79
2022/07/15 00:03:55;;;;;;;;;;;;;;;;;;5055698;28;19925;-79
2022/07/15 00:06:21;;;;;;;;;;;;;;;;;;5055584;28;19976;-79
2022/07/15 00:08:48;;;;;;;;;;;;;;;;;;5056405;28;20011;-78
2022/07/15 00:11:14;;;;;;;;;;;;;;;;;;5056615;28;19925;-77
2022/07/15 00:13:40;;;;;;;;;;;;;;;;;;5070029;28;20020;-77
2022/07/15 00:16:07;;;;;;;;;;;;;;;;;;5081093;28;19909;-78
2022/07/15 00:18:35;;;;;;;;;;;;;;;;;;5069314;28;19929;-77
2022/07/15 00:21:02;;;;;;;;;;;;;;;;;;5057250;28;20036;-77
2022/07/15 00:23:29;;;;;;;;;;;;;;;;;;5056700;28;19963;-78
2022/07/15 00:25:56;;;;;;;;;;;;;;;;;;5055615;28;19925;-77
2022/07/15 00:28:24;;;;;;;;;;;;;;;;;;5055733;28;20011;-78
2022/07/15 00:30:50;;;;;;;;;;;;;;;;;;5055356;28;19925;-77
2022/07/15 00:33:17;;;;;;;;;;;;;;;;;;5058328;28;20007;-78
2022/07/15 00:35:43;;;;;;;;;;;;;;;;;;5055585;28;20023;-78
2022/07/15 00:38:12;;;;;;;;;;;;;;;;;;5054861;28;19925;-77
2022/07/15 00:40:42;;;;;;;;;;;;;;;;;;5054970;28;20379;-78
2022/07/15 00:43:08;;;;;;;;;;;;;;;;;;5055452;28;20016;-78
2022/07/15 00:45:35;;;;;;;;;;;;;;;;;;5055149;28;20011;-78
2022/07/15 00:48:01;;;;;;;;;;;;;;;;;;5054654;28;20011;-78
2022/07/15 00:50:29;;;;;;;;;;;;;;;;;;5054753;28;20027;-78
2022/07/15 00:52:56;;;;;;;;;;;;;;;;;;5054790;28;19967;-78
2022/07/15 00:55:24;;;;;;;;;;;;;;;;;;5054742;28;20307;-77
2022/07/15 00:57:52;;;;;;;;;;;;;;;;;;5054496;28;19937;-78
2022/07/15 01:00:19;;;;;;;;;;;;;;;;;;5064108;28;19968;-78
2022/07/15 01:02:50;;;;;;;;;;;;;;;;;;5074626;28;20314;-77
2022/07/15 01:05:18;;;;;;;;;;;;;;;;;;5074431;28;20379;-77
2022/07/15 01:07:45;;;;;;;;;;;;;;;;;;5074547;28;19929;-77
2022/07/15 01:10:11;;;;;;;;;;;;;;;;;;5073774;28;19963;-78
2022/07/15 01:12:40;;;;;;;;;;;;;;;;;;5074466;28;19964;-78
2022/07/15 01:15:07;;;;;;;;;;;;;;;;;;5074081;28;19979;-78
2022/07/15 01:17:33;;;;;;;;;;;;;;;;;;5074209;28;20019;-77
2022/07/15 01:20:00;;;;;;;;;;;;;;;;;;5074503;28;20018;-78
2022/07/15 01:22:28;;;;;;;;;;;;;;;;;;5074304;28;20443;-78
2022/07/15 01:24:54;;;;;;;;;;;;;;;;;;5074497;28;19967;-77
2022/07/15 01:27:21;;;;;;;;;;;;;;;;;;5074062;28;19932;-77
2022/07/15 01:29:48;;;;;;;;;;;;;;;;;;5074093;28;19924;-76
2022/07/15 01:32:14;;;;;;;;;;;;;;;;;;5074341;28;19971;-78
2022/07/15 01:34:41;;;;;;;;;;;;;;;;;;5074066;28;20451;-78
2022/07/15 01:37:07;;;;;;;;;;;;;;;;;;5074253;28;19974;-78
2022/07/15 01:39:35;;;;;;;;;;;;;;;;;;5074707;28;20019;-78
2022/07/15 01:42:01;;;;;;;;;;;;;;;;;;5075380;28;20358;-78
2022/07/15 01:44:28;;;;;;;;;;;;;;;;;;5075423;28;20410;-78
2022/07/15 01:46:54;;;;;;;;;;;;;;;;;;5074756;28;20028;-78
2022/07/15 01:49:25;;;;;;;;;;;;;;;;;;5075409;28;19967;-79
2022/07/15 01:51:53;;;;;;;;;;;;;;;;;;5075304;28;19924;-78
2022/07/15 01:54:19;;;;;;;;;;;;;;;;;;5074941;28;19947;-79
2022/07/15 01:56:47;;;;;;;;;;;;;;;;;;5074572;28;19979;-78
2022/07/15 01:59:14;;;;;;;;;;;;;;;;;;5073794;28;20429;-78
2022/07/15 02:01:42;;;;;;;;;;;;;;;;;;5054451;28;19925;-78
2022/07/15 02:04:08;;;;;;;;;;;;;;;;;;5054893;28;19931;-79
2022/07/15 02:06:35;;;;;;;;;;;;;;;;;;5054762;28;19935;-78
2022/07/15 02:09:02;;;;;;;;;;;;;;;;;;5055166;28;19964;-78
2022/07/15 02:11:28;;;;;;;;;;;;;;;;;;5053937;28;19947;-78
2022/07/15 02:13:59;;;;;;;;;;;;;;;;;;5053964;28;19925;-78
2022/07/15 02:16:25;;;;;;;;;;;;;;;;;;5055557;28;19991;-77
2022/07/15 02:18:52;;;;;;;;;;;;;;;;;;5055966;28;19968;-77
2022/07/15 02:21:18;;;;;;;;;;;;;;;;;;5054770;28;20376;-78
2022/07/15 02:23:45;;;;;;;;;;;;;;;;;;5053239;28;20466;-78
2022/07/15 02:26:11;;;;;;;;;;;;;;;;;;5052858;28;19964;-78
2022/07/15 02:28:38;;;;;;;;;;;;;;;;;;5053280;28;20015;-78
2022/07/15 02:31:06;;;;;;;;;;;;;;;;;;5053194;28;19968;-78
2022/07/15 02:33:33;;;;;;;;;;;;;;;;;;5052980;28;19928;-77
2022/07/15 02:35:59;;;;;;;;;;;;;;;;;;5052867;28;19964;-78
2022/07/15 02:38:26;;;;;;;;;;;;;;;;;;5053056;28;20015;-77
2022/07/15 02:40:52;;;;;;;;;;;;;;;;;;5052842;28;19963;-79
2022/07/15 02:43:19;;;;;;;;;;;;;;;;;;5054062;28;19924;-78
2022/07/15 02:45:45;;;;;;;;;;;;;;;;;;5053424;28;19971;-77
2022/07/15 02:48:15;;;;;;;;;;;;;;;;;;5053245;28;19960;-78
2022/07/15 02:50:41;;;;;;;;;;;;;;;;;;5053416;28;19925;-78
2022/07/15 02:53:08;;;;;;;;;;;;;;;;;;5053519;28;19997;-78
2022/07/15 02:55:35;;;;;;;;;;;;;;;;;;5052823;28;20016;-78
2022/07/15 02:58:02;;;;;;;;;;;;;;;;;;5053655;28;19960;-77
2022/07/15 03:00:28;;;;;;;;;;;;;;;;;;5064875;28;19925;-78
2022/07/15 03:02:55;;;;;;;;;;;;;;;;;;5073910;28;19979;-78
2022/07/15 03:05:22;;;;;;;;;;;;;;;;;;5073606;28;19999;-78
2022/07/15 03:07:49;;;;;;;;;;;;;;;;;;5072599;28;20023;-78
2022/07/15 03:10:16;;;;;;;;;;;;;;;;;;5072659;28;19964;-78
2022/07/15 03:12:43;;;;;;;;;;;;;;;;;;5072561;28;19928;-78
2022/07/15 03:15:11;;;;;;;;;;;;;;;;;;5072776;28;20011;-78
2022/07/15 03:17:39;;;;;;;;;;;;;;;;;;5073050;28;19924;-78
2022/07/15 03:20:07;;;;;;;;;;;;;;;;;;5073184;28;19964;-79
2022/07/15 03:22:34;;;;;;;;;;;;;;;;;;5075913;28;19939;-78
2022/07/15 03:25:01;;;;;;;;;;;;;;;;;;5097547;28;19912;-78
2022/07/15 03:27:27;;;;;;;;;;;;;;;;;;5093686;28;19970;-79
2022/07/15 03:29:54;;;;;;;;;;;;;;;;;;5074805;28;19971;-79
2022/07/15 03:32:21;;;;;;;;;;;;;;;;;;5075912;28;20023;-79
2022/07/15 03:34:48;;;;;;;;;;;;;;;;;;5074962;28;19984;-78
2022/07/15 03:37:15;;;;;;;;;;;;;;;;;;5073211;28;20299;-79
2022/07/15 03:39:43;;;;;;;;;;;;;;;;;;5073460;28;19924;-79
2022/07/15 03:42:09;;;;;;;;;;;;;;;;;;5073773;28;19986;-78
2022/07/15 03:44:36;;;;;;;;;;;;;;;;;;5074591;28;19924;-79
2022/07/15 03:47:02;;;;;;;;;;;;;;;;;;5072812;28;19978;-78
2022/07/15 03:49:29;;;;;;;;;;;;;;;;;;5073748;28;19983;-79
2022/07/15 03:51:55;;;;;;;;;;;;;;;;;;5084817;28;19999;-79
2022/07/15 03:54:21;;;;;;;;;;;;;;;;;;5073621;28;19976;-78
2022/07/15 03:56:49;;;;;;;;;;;;;;;;;;5073541;28;19990;-79
2022/07/15 03:59:16;;;;;;;;;;;;;;;;;;5072284;28;19925;-78
2022/07/15 04:01:42;;;;;;;;;;;;;;;;;;5053270;28;19925;-79
2022/07/15 04:04:09;;;;;;;;;;;;;;;;;;5053459;28;20003;-79
2022/07/15 04:06:36;;;;;;;;;;;;;;;;;;5052500;28;19933;-79
2022/07/15 04:09:03;;;;;;;;;;;;;;;;;;5053676;28;19983;-78
2022/07/15 04:11:30;;;;;;;;;;;;;;;;;;5052792;28;19983;-79
2022/07/15 04:13:58;;;;;;;;;;;;;;;;;;5053449;28;19999;-78
2022/07/15 04:16:24;;;;;;;;;;;;;;;;;;5053259;28;19970;-79
2022/07/15 04:18:52;;;;;;;;;;;;;;;;;;5053067;28;19925;-79
2022/07/15 04:21:18;;;;;;;;;;;;;;;;;;5052863;28;19929;-79
2022/07/15 04:23:45;;;;;;;;;;;;;;;;;;5053159;28;19924;-79
2022/07/15 04:26:11;;;;;;;;;;;;;;;;;;5052544;28;19925;-80
2022/07/15 04:28:38;;;;;;;;;;;;;;;;;;5052710;28;19928;-78
2022/07/15 04:31:06;;;;;;;;;;;;;;;;;;5052511;28;19929;-79
2022/07/15 04:33:32;;;;;;;;;;;;;;;;;;5051994;28;19972;-78
2022/07/15 04:35:59;;;;;;;;;;;;;;;;;;5052126;28;19972;-78
2022/07/15 04:38:25;;;;;;;;;;;;;;;;;;5053788;28;19975;-78
2022/07/15 04:40:52;;;;;;;;;;;;;;;;;;5052723;28;19932;-77
2022/07/15 04:43:18;;;;;;;;;;;;;;;;;;5052161;28;20284;-78
2022/07/15 04:45:45;;;;;;;;;;;;;;;;;;5054233;28;19964;-78
2022/07/15 04:50:57;;;;;;;;;;;;;;;;;;5055601;28;19931;-78
2022/07/15 04:53:23;;;;;;;;;;;;;;;;;;5055860;28;19970;-78
2022/07/15 04:55:49;;;;;;;;;;;;;;;;;;5055741;28;19929;-79
2022/07/15 04:58:16;;;;;;;;;;;;;;;;;;5055946;28;19925;-79
2022/07/15 05:00:43;;;;;;;;;;;;;;;;;;5069103;28;20391;-78
2022/07/15 05:03:09;;;;;;;;;;;;;;;;;;5075026;28;19964;-78
2022/07/15 05:05:37;;;;;;;;;;;;;;;;;;5075306;28;20015;-78
2022/07/15 05:08:04;;;;;;;;;;;;;;;;;;5074517;28;20418;-79
2022/07/15 05:10:31;;;;;;;;;;;;;;;;;;5076227;28;20023;-79
2022/07/15 05:12:58;;;;;;;;;;;;;;;;;;5076093;28;19925;-78
2022/07/15 05:15:25;;;;;;;;;;;;;;;;;;5075705;28;19931;-78
2022/07/15 05:17:51;;;;;;;;;;;;;;;;;;5075194;28;19964;-78
2022/07/15 05:20:18;;;;;;;;;;;;;;;;;;5075723;28;20007;-79
2022/07/15 05:22:45;;;;;;;;;;;;;;;;;;5076566;28;20006;-78
2022/07/15 05:25:12;;;;;;;;;;;;;;;;;;5076025;28;19925;-78
2022/07/15 05:27:38;;;;;;;;;;;;;;;;;;5075293;28;20383;-78
2022/07/15 05:30:05;;;;;;;;;;;;;;;;;;5076343;28;19964;-77
2022/07/15 05:32:32;;;;;;;;;;;;;;;;;;5075881;28;19925;-78
2022/07/15 05:34:58;;;;;;;;;;;;;;;;;;5096168;22;19955;-75
2022/07/15 05:37:25;;;;;;;;;;;;;;;;;;5094014;28;19924;-76
2022/07/15 05:39:56;;;;;;;;;;;;;;;;;;5094887;28;20023;-76
2022/07/15 05:42:23;;;;;;;;;;;;;;;;;;5094383;28;19924;-76
2022/07/15 05:44:49;;;;;;;;;;;;;;;;;;5094286;28;19924;-77
2022/07/15 05:47:16;;;;;;;;;;;;;;;;;;5095476;28;19967;-77
2022/07/15 05:49:43;;;;;;;;;;;;;;;;;;5098778;28;19935;-76
2022/07/15 05:52:10;;;;;;;;;;;;;;;;;;5096730;28;19928;-77
2022/07/15 05:54:36;;;;;;;;;;;;;;;;;;5097478;28;20360;-77
2022/07/15 05:57:04;;;;;;;;;;;;;;;;;;5096805;28;19991;-77
2022/07/15 05:59:31;;;;;;;;;;;;;;;;;;5095961;28;20406;-77
2022/07/15 06:01:58;;;;;;;;;;;;;;;;;;5096578;28;19924;-76
2022/07/15 06:04:26;;;;;;;;;;;;;;;;;;5097084;28;19924;-76
2022/07/15 06:06:52;;;;;;;;;;;;;;;;;;5094361;28;19950;-77
2022/07/15 06:09:19;;;;;;;;;;;;;;;;;;5093725;28;19930;-76
2022/07/15 06:11:45;;;;;;;;;;;;;;;;;;5093799;28;19968;-77
2022/07/15 06:14:13;;;;;;;;;;;;;;;;;;5094131;28;19924;-77
2022/07/15 06:16:40;;;;;;;;;;;;;;;;;;5093461;28;19931;-77
2022/07/15 06:19:08;;;;;;;;;;;;;;;;;;5094180;28;20443;-76
2022/07/15 06:21:35;;;;;;;;;;;;;;;;;;5093819;28;19930;-76
2022/07/15 06:24:04;;;;;;;;;;;;;;;;;;5094211;28;20007;-77
2022/07/15 06:26:31;;;;;;;;;;;;;;;;;;5094676;28;20007;-76
2022/07/15 06:28:57;;;;;;;;;;;;;;;;;;5094222;28;19982;-76
2022/07/15 06:31:25;;;;;;;;;;;;;;;;;;5093744;28;19928;-75
2022/07/15 06:33:51;;;;;;;;;;;;;;;;;;5093087;28;19975;-75
2022/07/15 06:36:18;;;;;;;;;;;;;;;;;;5093090;28;20464;-77
2022/07/15 06:38:45;;;;;;;;;;;;;;;;;;5093165;28;20019;-74
2022/07/15 06:41:12;;;;;;;;;;;;;;;;;;5093209;28;19925;-75
2022/07/15 06:43:39;;;;;;;;;;;;;;;;;;5093504;28;20394;-76
2022/07/15 06:46:05;;;;;;;;;;;;;;;;;;5094579;28;19975;-75
2022/07/15 06:48:33;;;;;;;;;;;;;;;;;;5093065;28;19986;-75
2022/07/15 06:51:00;;;;;;;;;;;;;;;;;;5092919;28;20039;-75
2022/07/15 06:53:26;;;;;;;;;;;;;;;;;;5093029;28;19924;-74
2022/07/15 06:55:53;;;;;;;;;;;;;;;;;;5092432;28;20386;-75
2022/07/15 06:58:19;;;;;;;;;;;;;;;;;;5092504;28;19924;-76
2022/07/15 07:00:46;;;;;;;;;;;;;;;;;;5079697;28;19970;-76
2022/07/15 07:03:12;;;;;;;;;;;;;;;;;;5073294;28;20397;-77
2022/07/15 07:05:40;;;;;;;;;;;;;;;;;;5073239;28;19974;-76
2022/07/15 07:08:07;;;;;;;;;;;;;;;;;;5071723;28;19932;-75
2022/07/15 07:10:33;;;;;;;;;;;;;;;;;;5072852;28;20050;-75
2022/07/15 07:13:00;;;;;;;;;;;;;;;;;;5072560;28;19952;-77
2022/07/15 07:15:27;;;;;;;;;;;;;;;;;;5087219;28;19951;-77
2022/07/15 07:17:54;;;;;;;;;;;;;;;;;;5091530;28;19928;-78
2022/07/15 07:20:20;;;;;;;;;;;;;;;;;;5095947;28;19977;-76
2022/07/15 07:23:18;;;;;;;;;;;;;;;;;;5094596;28;19958;-77
2022/07/15 07:25:44;;;;;;;;;;;;;;;;;;5091747;28;20309;-76
2022/07/15 07:28:13;;;;;;;;;;;;;;;;;;5090253;28;19967;-76
2022/07/15 07:30:40;;;;;;;;;;;;;;;;;;5091158;28;19932;-77
2022/07/15 07:33:06;;;;;;;;;;;;;;;;;;5090795;28;19971;-77
2022/07/15 07:35:33;;;;;;;;;;;;;;;;;;5090677;28;20359;-76
2022/07/15 07:38:01;;;;;;;;;;;;;;;;;;5090520;28;20358;-75
2022/07/15 07:40:27;;;;;;;;;;;;;;;;;;5091542;28;19931;-79
2022/07/15 07:42:55;;;;;;;;;;;;;;;;;;5094590;28;19931;-76
2022/07/15 07:45:22;;;;;;;;;;;;;;;;;;5090367;28;19929;-77
2022/07/15 07:47:48;;;;;;;;;;;;;;;;;;5090300;28;20159;-77
2022/07/15 07:50:15;;;;;;;;;;;;;;;;;;5091729;28;19924;-78
2022/07/15 07:52:41;;;;;;;;;;;;;;;;;;5092568;28;20340;-77
2022/07/15 07:55:10;;;;;;;;;;;;;;;;;;5090569;28;19924;-78
2022/07/15 08:00:36;;;;;;;;;;;;;;;;;;5094835;28;20299;-78
2022/07/15 08:03:03;;;;;;;;;;;;;;;;;;5091437;28;20391;-76
2022/07/15 08:05:29;;;;;;;;;;;;;;;;;;5092745;28;19928;-77
2022/07/15 08:08:06;;;;;;;;;;;;;;;;;;5091047;28;20426;-77
2022/07/15 08:10:34;;;;;;;;;;;;;;;;;;5092384;28;19971;-78
2022/07/15 08:13:01;;;;;;;;;;;;;;;;;;5091403;28;19931;-78
2022/07/15 08:15:28;;;;;;;;;;;;;;;;;;5091202;28;19924;-77
2022/07/15 08:17:55;;;;;;;;;;;;;;;;;;5095110;28;19968;-78
2022/07/15 08:20:21;;;;;;;;;;;;;;;;;;5097037;28;20298;-79
2022/07/15 08:22:48;;;;;;;;;;;;;;;;;;5097942;28;19971;-78
2022/07/15 08:25:14;;;;;;;;;;;;;;;;;;5095514;28;19928;-78
2022/07/15 08:27:42;;;;;;;;;;;;;;;;;;5096230;28;20011;-77
2022/07/15 08:30:09;;;;;;;;;;;;;;;;;;5093994;28;19924;-78
2022/07/15 08:32:35;;;;;;;;;;;;;;;;;;5094922;28;19982;-76
2022/07/15 08:35:02;;;;;;;;;;;;;;;;;;5085700;28;19971;-76
2022/07/15 08:37:28;;;;;;;;;;;;;;;;;;5088080;28;20344;-78
2022/07/15 08:39:55;;;;;;;;;;;;;;;;;;5085675;28;19925;-78
2022/07/15 08:42:21;;;;;;;;;;;;;;;;;;5090068;28;19924;-78
2022/07/15 08:44:49;;;;;;;;;;;;;;;;;;5085165;28;20434;-77
2022/07/15 08:47:17;;;;;;;;;;;;;;;;;;5073879;28;20014;-78
2022/07/15 08:49:45;;;;;;;;;;;;;;;;;;5075516;28;19970;-77
2022/07/15 08:52:12;;;;;;;;;;;;;;;;;;5082749;28;19924;-78
2022/07/15 08:54:38;;;;;;;;;;;;;;;;;;5076793;28;20439;-77
2022/07/15 08:57:05;;;;;;;;;;;;;;;;;;5075638;28;19924;-78
2022/07/15 08:59:32;;;;;;;;;;;;;;;;;;5076452;28;19925;-77
2022/07/15 09:02:00;;;;;;;;;;;;;;;;;;5078800;28;20003;-78
2022/07/15 09:04:26;;;;;;;;;;;;;;;;;;5080493;28;19925;-77
2022/07/15 09:06:53;;;;;;;;;;;;;;;;;;5095604;28;20050;-78
2022/07/15 09:09:24;;;;;;;;;;;;;;;;;;5096763;28;20421;-78
2022/07/15 09:11:54;;;;;;;;;;;;;;;;;;5085814;28;19956;-83
2022/07/15 09:14:21;;;;;;;;;;;;;;;;;;5084053;28;19981;-74
2022/07/15 09:16:47;;;;;;;;;;;;;;;;;;5083493;28;19925;-77
2022/07/15 09:19:16;;;;;;;;;;;;;;;;;;5073691;28;19979;-78
2022/07/15 09:21:43;;;;;;;;;;;;;;;;;;5075505;28;19924;-79
2022/07/15 09:24:17;;;;;;;;;;;;;;;;;;5092895;28;19924;-77
2022/07/15 09:26:44;;;;;;;;;;;;;;;;;;5093940;28;19924;-78
2022/07/15 09:34:59;;;;;;;;;;;;;;;;;;5094367;28;19931;-76
2022/07/15 09:37:25;;;;;;;;;;;;;;;;;;5092687;28;19924;-77
2022/07/15 09:39:56;;;;;;;;;;;;;;;;;;5092559;28;19959;-77
2022/07/15 09:42:22;;;;;;;;;;;;;;;;;;5092606;28;19924;-77
2022/07/15 09:44:50;;;;;;;;;;;;;;;;;;5093910;28;19968;-78
2022/07/15 09:47:18;;;;;;;;;;;;;;;;;;5093615;28;19935;-77
2022/07/15 09:49:46;;;;;;;;;;;;;;;;;;5092455;28;19924;-78
2022/07/15 09:52:14;;;;;;;;;;;;;;;;;;5092521;28;19957;-78
2022/07/15 09:54:41;;;;;;;;;;;;;;;;;;5092184;28;20005;-78
2022/07/15 09:57:09;;;;;;;;;;;;;;;;;;5092063;28;19928;-78
2022/07/15 09:59:35;;;;;;;;;;;;;;;;;;5088715;28;19928;-78
2022/07/15 10:02:02;;;;;;;;;;;;;;;;;;5071753;28;20057;-78
2022/07/15 10:04:30;;;;;;;;;;;;;;;;;;5071703;28;20383;-76
2022/07/15 10:06:59;;;;;;;;;;;;;;;;;;5071211;28;20446;-78
2022/07/15 10:09:26;;;;;;;;;;;;;;;;;;5071470;28;19928;-77
2022/07/15 10:11:54;;;;;;;;;;;;;;;;;;5071735;28;20012;-78
2022/07/15 10:14:27;;;;;;;;;;;;;;;;;;5071299;28;20015;-77
2022/07/15 10:17:02;;;;;;;;;;;;;;;;;;5071436;28;20019;-77
2022/07/15 10:19:37;;;;;;;;;;;;;;;;;;5071410;28;19998;-77
2022/07/15 10:22:10;;;;;;;;;;;;;;;;;;5071544;28;20414;-76
2022/07/15 10:24:46;;;;;;;;;;;;;;;;;;5071708;28;19925;-76
2022/07/15 10:27:22;;;;;;;;;;;;;;;;;;5071631;28;19924;-77
2022/07/15 10:29:49;;;;;;;;;;;;;;;;;;5072320;28;20388;-78
2022/07/15 10:32:15;;;;;;;;;;;;;;;;;;5073607;28;19992;-78
2022/07/15 10:34:42;;;;;;;;;;;;;;;;;;5076047;28;19930;-77
2022/07/15 10:37:11;;;;;;;;;;;;;;;;;;5080415;28;19924;-79
2022/07/15 10:39:51;;;;;;;;;;;;;;;;;;5083588;28;19946;-79
2022/07/15 10:42:18;;;;;;;;;;;;;;;;;;5074769;28;20387;-78
2022/07/15 10:44:49;;;;;;;;;;;;;;;;;;5074027;28;19928;-78
2022/07/15 10:47:20;;;;;;;;;;;;;;;;;;5074119;28;19924;-77
2022/07/15 10:49:48;;;;;;;;;;;;;;;;;;5073170;28;20446;-77
2022/07/15 10:52:17;;;;;;;;;;;;;;;;;;5072338;28;19925;-77
2022/07/15 10:54:45;;;;;;;;;;;;;;;;;;5073154;28;19924;-78
2022/07/15 10:57:13;;;;;;;;;;;;;;;;;;5072915;28;20386;-79
2022/07/15 10:59:47;;;;;;;;;;;;;;;;;;5072825;28;20310;-78
2022/07/15 11:02:18;;;;;;;;;;;;;;;;;;5071858;28;19925;-78
2022/07/15 11:04:45;;;;;;;;;;;;;;;;;;5073564;28;19924;-78
2022/07/15 11:07:24;;;;;;;;;;;;;;;;;;5073017;28;19951;-78
2022/07/15 11:09:52;;;;;;;;;;;;;;;;;;5073296;28;19967;-77
2022/07/15 11:12:19;;;;;;;;;;;;;;;;;;5072646;28;20015;-77
2022/07/15 11:14:52;;;;;;;;;;;;;;;;;;5072969;28;20468;-78
2022/07/15 11:17:20;;;;;;;;;;;;;;;;;;5074067;28;20054;-77
2022/07/15 11:19:54;;;;;;;;;;;;;;;;;;5071722;28;19931;-78
2022/07/15 11:22:21;;;;;;;;;;;;;;;;;;5073585;28;19983;-78
2022/07/15 11:24:55;;;;;;;;;;;;;;;;;;5070974;28;20290;-78
2022/07/15 11:27:22;;;;;;;;;;;;;;;;;;5072168;28;19935;-79
2022/07/15 11:29:50;;;;;;;;;;;;;;;;;;5070925;28;19925;-78
2022/07/15 11:32:18;;;;;;;;;;;;;;;;;;5072286;28;20015;-78
2022/07/15 11:34:45;;;;;;;;;;;;;;;;;;5073102;28;20681;-80
2022/07/15 11:37:18;;;;;;;;;;;;;;;;;;5071952;28;19986;-78
2022/07/15 11:39:45;;;;;;;;;;;;;;;;;;5074320;28;19952;-78
2022/07/15 11:45:03;;;;;;;;;;;;;;;;;;5112111;28;19931;-77
2022/07/15 11:47:30;;;;;;;;;;;;;;;;;;5113139;28;19928;-77
2022/07/15 11:49:59;;;;;;;;;;;;;;;;;;5112881;28;20301;-77
2022/07/15 11:52:26;;;;;;;;;;;;;;;;;;5099308;28;19971;-77
2022/07/15 11:54:52;;;;;;;;;;;;;;;;;;5095510;28;20006;-76
2022/07/15 11:57:20;;;;;;;;;;;;;;;;;;5096571;28;19977;-77
2022/07/15 11:59:57;;;;;;;;;;;;;;;;;;5101730;28;20018;-77
2022/07/15 12:02:24;;;;;;;;;;;;;;;;;;5117162;28;20359;-78
2022/07/15 12:04:50;;;;;;;;;;;;;;;;;;5116413;28;19924;-77
2022/07/15 12:07:17;;;;;;;;;;;;;;;;;;5116393;28;19997;-77
2022/07/15 12:09:44;;;;;;;;;;;;;;;;;;5117356;28;19982;-77
2022/07/15 12:12:11;;;;;;;;;;;;;;;;;;5116605;28;20008;-76
2022/07/15 12:14:39;;;;;;;;;;;;;;;;;;5116407;28;19951;-76
2022/07/15 12:17:06;;;;;;;;;;;;;;;;;;5114088;28;20286;-76
2022/07/15 12:19:33;;;;;;;;;;;;;;;;;;5114938;28;19963;-76
2022/07/15 12:22:01;;;;;;;;;;;;;;;;;;5114893;28;20216;-76
2022/07/15 12:24:36;;;;;;;;;;;;;;;;;;5116707;28;19924;-76
2022/07/15 12:27:03;;;;;;;;;;;;;;;;;;5115097;28;19976;-77
2022/07/15 12:29:30;;;;;;;;;;;;;;;;;;5115210;28;20010;-77
2022/07/15 12:31:59;;;;;;;;;;;;;;;;;;5114950;28;20039;-76
2022/07/15 12:34:40;;;;;;;;;;;;;;;;;;5114603;28;19924;-76
2022/07/15 12:37:07;;;;;;;;;;;;;;;;;;5113490;28;20019;-77
2022/07/15 12:39:33;;;;;;;;;;;;;;;;;;5113950;28;19934;-76
2022/07/15 12:42:01;;;;;;;;;;;;;;;;;;5113853;28;20420;-77
2022/07/15 12:44:28;;;;;;;;;;;;;;;;;;5113983;28;19923;-77
2022/07/15 12:46:57;;;;;;;;;;;;;;;;;;5114149;28;19953;-77
2022/07/15 12:49:44;;;;;;;;;;;;;;;;;;5099914;28;19977;-77
2022/07/15 12:52:18;;;;;;;;;;;;;;;;;;5093562;28;20322;-77
2022/07/15 12:54:45;;;;;;;;;;;;;;;;;;5093607;28;19977;-77
2022/07/15 12:57:31;;;;;;;;;;;;;;;;;;5094078;28;20006;-78
2022/07/15 12:59:59;;;;;;;;;;;;;;;;;;5106976;28;19967;-78
2022/07/15 13:02:26;;;;;;;;;;;;;;;;;;5096338;28;20023;-78
2022/07/15 13:04:54;;;;;;;;;;;;;;;;;;5095795;28;19987;-78
2022/07/15 13:07:20;;;;;;;;;;;;;;;;;;5094897;28;19983;-78
2022/07/15 13:09:48;;;;;;;;;;;;;;;;;;5096303;28;19924;-78
2022/07/15 13:12:15;;;;;;;;;;;;;;;;;;5096552;28;19924;-78
2022/07/15 13:14:41;;;;;;;;;;;;;;;;;;5101517;28;19925;-78
2022/07/15 13:17:08;;;;;;;;;;;;;;;;;;5103388;28;19947;-78
2022/07/15 13:19:35;;;;;;;;;;;;;;;;;;5105603;28;19924;-78
2022/07/15 13:22:03;;;;;;;;;;;;;;;;;;5102629;28;19924;-78
2022/07/15 13:24:29;;;;;;;;;;;;;;;;;;5101301;28;19955;-77
2022/07/15 13:26:56;;;;;;;;;;;;;;;;;;5100129;28;19986;-78
2022/07/15 13:29:22;;;;;;;;;;;;;;;;;;5100344;28;19924;-78
2022/07/15 13:31:49;;;;;;;;;;;;;;;;;;5099489;28;19924;-78
2022/07/15 13:34:15;;;;;;;;;;;;;;;;;;5097999;28;20456;-77
2022/07/15 13:36:42;;;;;;;;;;;;;;;;;;5101051;28;19924;-78
2022/07/15 13:39:10;;;;;;;;;;;;;;;;;;5105824;28;19924;-79
2022/07/15 13:41:36;;;;;;;;;;;;;;;;;;5098649;28;19924;-78
2022/07/15 13:44:03;;;;;;;;;;;;;;;;;;5096366;28;19931;-78
2022/07/15 13:46:29;;;;;;;;;;;;;;;;;;5095717;28;19950;-78
2022/07/15 13:48:56;;;;;;;;;;;;;;;;;;5094761;28;20019;-79
2022/07/15 13:51:25;;;;;;;;;;;;;;;;;;5093622;28;19924;-78
2022/07/15 13:53:52;;;;;;;;;;;;;;;;;;5093489;28;19924;-79
2022/07/15 13:56:20;;;;;;;;;;;;;;;;;;5093566;28;19924;-79
2022/07/15 13:58:47;;;;;;;;;;;;;;;;;;5093693;28;19960;-78
2022/07/15 14:01:13;;;;;;;;;;;;;;;;;;5110331;28;19938;-78
2022/07/15 14:03:40;;;;;;;;;;;;;;;;;;5113879;28;20014;-78
2022/07/15 14:06:07;;;;;;;;;;;;;;;;;;5113084;28;19959;-78
2022/07/15 14:08:34;;;;;;;;;;;;;;;;;;5113363;28;19928;-78
2022/07/15 14:11:00;;;;;;;;;;;;;;;;;;5113452;28;19959;-78
2022/07/15 14:13:28;;;;;;;;;;;;;;;;;;5113842;28;20027;-78
2022/07/15 14:15:55;;;;;;;;;;;;;;;;;;5112955;28;19924;-79
2022/07/15 14:18:42;;;;;;;;;;;;;;;;;;5113483;28;19989;-78
2022/07/15 14:21:08;;;;;;;;;;;;;;;;;;5113672;28;19930;-79
2022/07/15 14:23:35;;;;;;;;;;;;;;;;;;5114506;28;19924;-79
2022/07/15 14:26:02;;;;;;;;;;;;;;;;;;5113972;28;19923;-78
2022/07/15 14:28:30;;;;;;;;;;;;;;;;;;5114133;28;19928;-78
2022/07/15 14:30:57;;;;;;;;;;;;;;;;;;5113562;28;20265;-78
2022/07/15 14:33:23;;;;;;;;;;;;;;;;;;5113673;28;19970;-77
2022/07/15 14:35:50;;;;;;;;;;;;;;;;;;5112648;28;19923;-77
2022/07/15 14:38:16;;;;;;;;;;;;;;;;;;5113604;28;19955;-78
2022/07/15 14:40:43;;;;;;;;;;;;;;;;;;5113299;28;19951;-77
2022/07/15 14:43:09;;;;;;;;;;;;;;;;;;5112726;28;19924;-78
2022/07/15 14:45:37;;;;;;;;;;;;;;;;;;5112651;28;20010;-79
2022/07/15 14:48:04;;;;;;;;;;;;;;;;;;5112477;28;20435;-79
2022/07/15 14:50:32;;;;;;;;;;;;;;;;;;5113509;28;19923;-78
2022/07/15 14:52:59;;;;;;;;;;;;;;;;;;5113797;28;19923;-79
2022/07/15 14:55:25;;;;;;;;;;;;;;;;;;5112829;28;20413;-78
2022/07/15 14:57:52;;;;;;;;;;;;;;;;;;5112995;28;19923;-79
2022/07/15 15:00:18;;;;;;;;;;;;;;;;;;5114862;28;19974;-79
2022/07/15 15:02:46;;;;;;;;;;;;;;;;;;5117307;28;20023;-79
2022/07/15 15:05:14;;;;;;;;;;;;;;;;;;5116811;28;19970;-78
2022/07/15 15:07:40;;;;;;;;;;;;;;;;;;5116100;28;19924;-79
2022/07/15 15:10:07;;;;;;;;;;;;;;;;;;5112984;28;19970;-78
2022/07/15 15:12:33;;;;;;;;;;;;;;;;;;5111424;28;19975;-77
2022/07/15 15:15:00;;;;;;;;;;;;;;;;;;5111244;28;19931;-76
2022/07/15 15:17:26;;;;;;;;;;;;;;;;;;5110568;28;20023;-78
2022/07/15 15:19:54;;;;;;;;;;;;;;;;;;5112023;28;20018;-78
2022/07/15 15:22:21;;;;;;;;;;;;;;;;;;5111230;28;20014;-77
2022/07/15 15:24:47;;;;;;;;;;;;;;;;;;5110937;28;19928;-76
2022/07/15 15:27:14;;;;;;;;;;;;;;;;;;5110823;28;20018;-76
2022/07/15 15:29:41;;;;;;;;;;;;;;;;;;5110254;28;19924;-76
2022/07/15 15:32:11;;;;;;;;;;;;;;;;;;5110627;28;19973;-77
2022/07/15 15:34:39;;;;;;;;;;;;;;;;;;5110664;28;20439;-77
2022/07/15 15:37:07;;;;;;;;;;;;;;;;;;5110805;28;20015;-77
2022/07/15 15:39:33;;;;;;;;;;;;;;;;;;5110888;28;19970;-78
2022/07/15 15:42:00;;;;;;;;;;;;;;;;;;5110697;28;19970;-78
2022/07/15 15:44:26;;;;;;;;;;;;;;;;;;5110977;28;20038;-78
2022/07/15 15:46:53;;;;;;;;;;;;;;;;;;5110387;28;19923;-77
2022/07/15 15:49:19;;;;;;;;;;;;;;;;;;5110841;28;19955;-77
2022/07/15 15:51:46;;;;;;;;;;;;;;;;;;5110919;28;20492;-77
2022/07/15 15:54:14;;;;;;;;;;;;;;;;;;5110889;28;20398;-78
2022/07/15 15:56:40;;;;;;;;;;;;;;;;;;5110307;28;19946;-77
2022/07/15 15:59:07;;;;;;;;;;;;;;;;;;5110515;28;20374;-77
2022/07/15 16:01:33;;;;;;;;;;;;;;;;;;5090262;28;19975;-78
2022/07/15 16:04:00;;;;;;;;;;;;;;;;;;5090341;28;19924;-77
2022/07/15 16:06:26;;;;;;;;;;;;;;;;;;5089839;28;20446;-78
2022/07/15 16:08:53;;;;;;;;;;;;;;;;;;5090592;28;19974;-78
2022/07/15 16:11:21;;;;;;;;;;;;;;;;;;5090428;28;19930;-78
2022/07/15 16:13:48;;;;;;;;;;;;;;;;;;5090430;28;19928;-78
2022/07/15 16:16:14;;;;;;;;;;;;;;;;;;5090057;28;19931;-77
2022/07/15 16:18:41;;;;;;;;;;;;;;;;;;5091514;28;20366;-77
2022/07/15 16:21:08;;;;;;;;;;;;;;;;;;5092113;28;19924;-79
2022/07/15 16:23:33;;;;;;;;;;;;;;;;;;5091458;28;20398;-78
2022/07/15 16:26:00;;;;;;;;;;;;;;;;;;5091809;28;20019;-78
2022/07/15 16:28:28;;;;;;;;;;;;;;;;;;5095590;28;19982;-78
2022/07/15 16:30:55;;;;;;;;;;;;;;;;;;5090798;28;19975;-77
2022/07/15 16:33:21;;;;;;;;;;;;;;;;;;5091242;28;19924;-77
2022/07/15 16:35:48;;;;;;;;;;;;;;;;;;5090573;28;20406;-76
2022/07/15 16:38:14;;;;;;;;;;;;;;;;;;5092398;28;19924;-78
2022/07/15 16:40:41;;;;;;;;;;;;;;;;;;5093409;28;19963;-77
2022/07/15 16:43:08;;;;;;;;;;;;;;;;;;5093681;28;20014;-75
2022/07/15 16:45:36;;;;;;;;;;;;;;;;;;5094314;28;20015;-78
2022/07/15 16:48:03;;;;;;;;;;;;;;;;;;5094084;28;19924;-77
2022/07/15 16:50:29;;;;;;;;;;;;;;;;;;5093635;28;20019;-78
2022/07/15 16:52:56;;;;;;;;;;;;;;;;;;5093840;28;20002;-79
2022/07/15 16:55:23;;;;;;;;;;;;;;;;;;5096848;28;19930;-78
2022/07/15 16:57:49;;;;;;;;;;;;;;;;;;5102322;28;20340;-78
2022/07/15 17:00:16;;;;;;;;;;;;;;;;;;5118691;28;19969;-78
2022/07/15 17:02:44;;;;;;;;;;;;;;;;;;5119041;28;19931;-78